createdAt,value
2019-04-23T00:02:18.610Z,16.80
2019-04-23T00:04:47.954Z,17.45
2019-04-23T00:07:26.676Z,18.15
2019-04-23T00:09:57.143Z,16.57
2019-04-23T00:12:30.095Z,17.20
2019-04-23T00:15:09.253Z,17.20
2019-04-23T00:17:21.386Z,16.55
2019-04-23T00:19:56.056Z,17.10
2019-04-23T00:22:31.362Z,17.53
2019-04-23T00:27:35.295Z,17.65
2019-04-23T00:30:04.493Z,17.27
2019-04-23T00:32:44.660Z,17.77
2019-04-23T00:35:00.725Z,16.80
2019-04-23T00:37:31.381Z,17.70
2019-04-23T00:39:56.700Z,16.48
2019-04-23T00:42:35.014Z,17.15
2019-04-23T00:45:03.365Z,17.15
2019-04-23T00:50:22.299Z,17.15
2019-04-23T00:52:37.151Z,17.07
2019-04-23T00:57:35.942Z,18.37
2019-04-23T01:00:31.320Z,17.05
2019-04-23T01:02:37.556Z,17.15
2019-04-23T01:05:14.787Z,18.03
2019-04-23T01:07:41.595Z,18.32
2019-04-23T01:10:15.102Z,18.20
2019-04-23T01:12:46.454Z,18.62
2019-04-23T01:15:18.846Z,18.17
2019-04-23T01:17:47.495Z,16.60
2019-04-23T01:20:24.598Z,15.80
2019-04-23T01:22:42.165Z,15.50
2019-04-23T01:25:27.861Z,16.17
2019-04-23T01:28:13.882Z,15.70
2019-04-23T01:30:46.892Z,14.63
2019-04-23T01:33:18.381Z,15.10
2019-04-23T01:35:51.099Z,17.55
2019-04-23T01:38:21.953Z,18.97
2019-04-23T01:41:01.805Z,18.17
2019-04-23T01:43:16.740Z,17.42
2019-04-23T01:45:56.174Z,19.10
2019-04-23T01:48:19.976Z,17.87
2019-04-23T01:53:19.490Z,18.85
2019-04-23T01:55:52.747Z,18.60
2019-04-23T01:58:32.245Z,19.67
2019-04-23T02:00:54.529Z,18.75
2019-04-23T02:03:26.610Z,20.30
2019-04-23T02:05:55.795Z,18.85
2019-04-23T02:08:39.902Z,18.90
2019-04-23T02:10:56.329Z,18.92
2019-04-23T02:13:31.241Z,16.97
2019-04-23T02:15:53.472Z,19.05
2019-04-23T02:18:45.500Z,19.37
2019-04-23T02:23:57.153Z,16.90
2019-04-23T02:26:43.912Z,18.80
2019-04-23T02:29:14.540Z,19.10
2019-04-23T02:31:57.657Z,17.87
2019-04-23T02:34:21.225Z,18.15
2019-04-23T02:36:55.078Z,18.60
2019-04-23T02:39:03.571Z,21.30
2019-04-23T02:41:46.397Z,22.25
2019-04-23T02:46:43.835Z,22.37
2019-04-23T02:51:48.930Z,21.73
2019-04-23T02:56:46.700Z,22.93
2019-04-23T02:59:21.412Z,22.45
2019-04-23T03:01:39.727Z,22.97
2019-04-23T03:04:19.685Z,21.57
2019-04-23T03:06:48.139Z,22.67
2019-04-23T03:09:20.595Z,22.62
2019-04-23T03:11:53.989Z,22.57
2019-04-23T03:14:18.706Z,23.45
2019-04-23T03:22:07.420Z,20.35
2019-04-23T03:24:43.575Z,21.93
2019-04-23T03:27:17.437Z,22.00
2019-04-23T03:37:32.187Z,21.95
2019-04-23T03:42:38.707Z,23.47
2019-04-23T03:45:09.447Z,23.40
2019-04-23T03:47:32.095Z,22.95
2019-04-23T03:50:05.247Z,21.97
2019-04-23T03:52:35.473Z,22.20
2019-04-23T03:55:05.222Z,22.13
2019-04-23T03:57:30.943Z,22.13
2019-04-23T04:05:01.296Z,22.53
2019-04-23T04:10:00.018Z,20.30
2019-04-23T04:12:39.950Z,20.62
2019-04-23T04:15:18.527Z,21.82
2019-04-23T04:17:37.617Z,21.02
2019-04-23T04:20:19.843Z,20.60
2019-04-23T04:25:14.568Z,18.48
2019-04-23T04:27:53.790Z,19.85
2019-04-23T04:30:27.714Z,19.77
2019-04-23T04:32:53.429Z,19.17
2019-04-23T04:42:41.716Z,18.57
2019-04-23T04:50:34.991Z,21.50
2019-04-23T04:52:58.308Z,21.47
2019-04-23T05:00:20.401Z,18.00
2019-04-23T05:10:25.185Z,16.25
2019-04-23T05:12:52.549Z,17.47
2019-04-23T05:18:08.432Z,14.70
2019-04-23T05:20:37.340Z,14.00
2019-04-23T05:23:16.374Z,14.25
2019-04-23T05:25:34.645Z,13.93
2019-04-23T05:28:08.004Z,14.87
2019-04-23T05:30:43.000Z,15.10
2019-04-23T05:36:04.865Z,16.55
2019-04-23T05:40:55.547Z,18.15
2019-04-23T05:43:10.387Z,16.80
2019-04-23T05:45:34.379Z,18.17
2019-04-23T05:48:13.450Z,17.95
2019-04-23T05:50:50.642Z,18.27
2019-04-23T05:55:43.089Z,18.17
2019-04-23T05:58:08.633Z,17.90
2019-04-23T06:00:51.565Z,17.57
2019-04-23T06:03:16.029Z,16.47
2019-04-23T06:05:49.845Z,15.30
2019-04-23T06:08:21.581Z,15.65
2019-04-23T06:10:54.346Z,15.80
2019-04-23T06:13:22.495Z,16.10
2019-04-23T06:15:44.044Z,16.20
2019-04-23T06:18:28.544Z,15.95
2019-04-23T06:23:31.424Z,14.78
2019-04-23T06:26:10.078Z,15.23
2019-04-23T06:28:24.648Z,15.30
2019-04-23T06:30:54.430Z,14.80
2019-04-23T06:33:28.559Z,14.45
2019-04-23T06:35:50.354Z,14.90
2019-04-23T06:40:55.410Z,14.40
2019-04-23T06:43:47.079Z,14.78
2019-04-23T06:46:13.426Z,14.43
2019-04-23T06:48:40.880Z,14.03
2019-04-23T06:53:37.448Z,15.55
2019-04-23T06:56:23.391Z,14.58
2019-04-23T06:58:42.911Z,16.30
2019-04-23T07:01:15.174Z,15.87
2019-04-23T07:03:51.820Z,15.03
2019-04-23T07:06:29.816Z,15.28
2019-04-23T07:11:20.101Z,15.43
2019-04-23T07:18:47.031Z,14.60
2019-04-23T07:24:00.725Z,14.47
2019-04-23T07:26:30.477Z,13.20
2019-04-23T07:31:28.077Z,14.13
2019-04-23T07:36:31.074Z,14.05
2019-04-23T07:39:06.130Z,13.70
2019-04-23T07:41:37.816Z,13.03
2019-04-23T07:44:29.755Z,13.57
2019-04-23T07:47:07.784Z,14.58
2019-04-23T07:49:26.538Z,13.10
2019-04-23T07:52:03.079Z,14.75
2019-04-23T07:54:29.007Z,13.70
2019-04-23T07:57:07.580Z,13.45
2019-04-23T08:02:01.305Z,12.13
2019-04-23T08:04:36.889Z,10.38
2019-04-23T08:07:01.280Z,13.40
2019-04-23T08:09:35.929Z,20.55
2019-04-23T08:12:07.870Z,26.60
2019-04-23T08:14:34.343Z,32.42
2019-04-23T08:17:05.593Z,32.25
2019-04-23T08:19:40.993Z,22.30
2019-04-23T08:22:17.557Z,18.85
2019-04-23T08:24:45.381Z,13.13
2019-04-23T08:29:35.939Z,11.00
2019-04-23T08:32:15.010Z,11.40
2019-04-23T08:35:03.175Z,11.03
2019-04-23T08:42:33.099Z,11.48
2019-04-23T08:45:06.947Z,11.27
2019-04-23T08:47:26.165Z,12.43
2019-04-23T08:49:53.408Z,12.33
2019-04-23T08:55:11.362Z,13.13
2019-04-23T08:57:30.740Z,13.30
2019-04-23T09:00:09.125Z,13.15
2019-04-23T09:02:45.241Z,11.00
2019-04-23T09:05:02.651Z,12.80
2019-04-23T09:12:37.142Z,11.50
2019-04-23T09:14:58.348Z,10.70
2019-04-23T09:17:34.603Z,9.93
2019-04-23T09:20:13.368Z,10.18
2019-04-23T09:25:03.938Z,10.07
2019-04-23T09:27:33.133Z,9.65
2019-04-23T09:32:28.437Z,9.16
2019-04-23T09:35:15.499Z,9.63
2019-04-23T09:43:20.487Z,9.75
2019-04-23T09:46:04.464Z,10.58
2019-04-23T09:48:39.138Z,10.78
2019-04-23T09:51:02.623Z,10.40
2019-04-23T09:53:33.933Z,10.57
2019-04-23T09:56:02.976Z,9.88
2019-04-23T09:58:29.565Z,9.63
2019-04-23T10:01:19.617Z,10.23
2019-04-23T10:03:36.296Z,10.07
2019-04-23T10:05:59.737Z,9.30
2019-04-23T10:08:27.938Z,9.40
2019-04-23T10:10:51.348Z,9.13
2019-04-23T10:13:20.274Z,9.10
2019-04-23T10:15:51.484Z,9.30
2019-04-23T10:18:20.211Z,8.83
2019-04-23T10:20:49.235Z,9.40
2019-04-23T10:23:19.010Z,8.90
2019-04-23T10:25:49.826Z,9.25
2019-04-23T10:28:29.675Z,9.43
2019-04-23T10:31:00.579Z,9.53
2019-04-23T10:33:29.865Z,9.05
2019-04-23T10:36:03.235Z,9.38
2019-04-23T10:38:30.674Z,8.60
2019-04-23T10:41:00.166Z,8.55
2019-04-23T10:43:31.503Z,8.90
2019-04-23T10:46:20.411Z,8.15
2019-04-23T10:49:11.238Z,8.38
2019-04-23T10:54:26.423Z,8.10
2019-04-23T10:56:47.813Z,7.13
2019-04-23T11:02:23.986Z,6.70
2019-04-23T11:07:20.775Z,7.10
2019-04-23T11:09:52.833Z,7.05
2019-04-23T11:12:35.430Z,6.05
2019-04-23T11:14:58.475Z,6.55
2019-04-23T11:19:56.688Z,7.03
2019-04-23T11:24:59.450Z,6.13
2019-04-23T11:27:28.158Z,6.25
2019-04-23T11:37:37.962Z,6.03
2019-04-23T11:38:09.130Z,5.93
2019-04-23T11:42:32.321Z,6.25
2019-04-23T11:44:56.579Z,6.22
2019-04-23T11:48:05.260Z,5.93
2019-04-23T11:52:36.659Z,5.75
2019-04-23T11:55:08.441Z,6.12
2019-04-23T11:57:54.875Z,5.87
2019-04-23T11:59:59.042Z,6.20
2019-04-23T12:07:53.769Z,5.97
2019-04-23T12:10:30.016Z,5.83
2019-04-23T12:12:57.901Z,5.47
2019-04-23T12:15:39.625Z,5.13
2019-04-23T12:20:33.447Z,6.03
2019-04-23T12:23:06.322Z,5.90
2019-04-23T12:25:32.475Z,5.78
2019-04-23T12:27:46.946Z,5.83
2019-04-23T12:30:35.914Z,5.57
2019-04-23T12:33:20.358Z,5.73
2019-04-23T12:35:27.811Z,5.43
2019-04-23T12:38:03.698Z,5.20
2019-04-23T12:40:32.326Z,6.08
2019-04-23T12:53:10.600Z,5.75
2019-04-23T13:00:38.877Z,6.08
2019-04-23T13:03:09.766Z,5.95
2019-04-23T13:05:34.130Z,6.80
2019-04-23T13:08:30.421Z,6.25
2019-04-23T13:10:41.867Z,7.57
2019-04-23T13:15:40.815Z,6.87
2019-04-23T13:20:38.456Z,6.70
2019-04-23T13:23:16.924Z,6.83
2019-04-23T13:25:57.154Z,6.60
2019-04-23T13:28:35.171Z,6.36
2019-04-23T13:31:06.454Z,5.97
2019-04-23T13:33:40.664Z,6.15
2019-04-23T13:36:08.146Z,6.58
2019-04-23T13:38:38.869Z,6.17
2019-04-23T13:41:10.129Z,6.20
2019-04-23T13:46:14.142Z,6.25
2019-04-23T13:48:34.026Z,6.42
2019-04-23T13:51:18.946Z,6.37
2019-04-23T13:53:49.720Z,5.67
2019-04-23T13:56:11.145Z,5.90
2019-04-23T13:58:46.708Z,5.90
2019-04-23T14:01:18.203Z,6.30
2019-04-23T14:03:59.970Z,5.40
2019-04-23T14:06:24.481Z,5.95
2019-04-23T14:11:26.330Z,6.53
2019-04-23T14:16:34.018Z,6.53
2019-04-23T14:18:55.932Z,6.77
2019-04-23T14:24:04.552Z,6.03
2019-04-23T14:28:59.174Z,6.23
2019-04-23T14:31:19.002Z,6.27
2019-04-23T14:34:01.343Z,5.95
2019-04-23T14:36:27.003Z,6.37
2019-04-23T14:38:53.850Z,5.50
2019-04-23T14:41:23.419Z,5.92
2019-04-23T14:44:05.331Z,5.70
2019-04-23T14:48:57.332Z,5.67
2019-04-23T14:51:30.913Z,6.53
2019-04-23T14:56:24.053Z,5.78
2019-04-23T14:59:06.792Z,5.35
2019-04-23T15:09:06.230Z,5.28
2019-04-23T15:14:01.481Z,6.22
2019-04-23T15:16:39.673Z,5.40
2019-04-23T15:24:27.984Z,5.28
2019-04-23T15:29:01.731Z,4.90
2019-04-23T15:31:52.408Z,5.87
2019-04-23T15:34:23.150Z,5.55
2019-04-23T15:39:32.717Z,6.23
2019-04-23T15:42:10.868Z,5.73
2019-04-23T15:44:13.475Z,5.50
2019-04-23T15:46:47.472Z,5.53
2019-04-23T15:51:54.265Z,6.73
2019-04-23T15:54:19.453Z,5.60
2019-04-23T15:57:01.243Z,5.07
2019-04-23T15:59:27.626Z,4.95
2019-04-23T16:01:40.603Z,6.00
2019-04-23T16:03:53.749Z,5.85
2019-04-23T16:06:25.414Z,5.87
2019-04-23T16:09:09.669Z,5.08
2019-04-23T16:11:48.170Z,6.03
2019-04-23T16:16:56.065Z,5.87
2019-04-23T16:19:24.525Z,6.40
2019-04-23T16:22:00.518Z,5.60
2019-04-23T16:24:20.578Z,6.00
2019-04-23T16:27:01.707Z,6.50
2019-04-23T16:29:34.232Z,6.50
2019-04-23T16:32:24.411Z,5.70
2019-04-23T16:37:13.718Z,6.35
2019-04-23T16:39:44.043Z,6.08
2019-04-23T16:42:17.439Z,5.58
2019-04-23T16:44:48.710Z,5.80
2019-04-23T16:47:21.722Z,6.10
2019-04-23T16:49:46.091Z,5.83
2019-04-23T16:52:20.070Z,6.03
2019-04-23T16:54:50.563Z,6.67
2019-04-23T16:57:35.883Z,6.37
2019-04-23T17:00:03.004Z,6.10
2019-04-23T17:02:21.391Z,6.10
2019-04-23T17:04:53.013Z,7.47
2019-04-23T17:07:12.068Z,6.42
2019-04-23T17:10:12.931Z,7.00
2019-04-23T17:12:45.844Z,7.37
2019-04-23T17:17:37.976Z,7.08
2019-04-23T17:20:16.064Z,7.03
2019-04-23T17:22:51.068Z,6.53
2019-04-23T17:25:17.620Z,7.00
2019-04-23T17:27:59.554Z,6.33
2019-04-23T17:33:13.820Z,7.27
2019-04-23T17:35:40.238Z,6.76
2019-04-23T17:38:19.338Z,7.20
2019-04-23T17:41:05.771Z,7.92
2019-04-23T17:43:31.528Z,8.03
2019-04-23T17:46:08.915Z,7.80
2019-04-23T17:48:34.744Z,8.15
2019-04-23T17:51:19.442Z,8.73
2019-04-23T17:54:06.993Z,7.67
2019-04-23T17:56:34.298Z,8.50
2019-04-23T17:59:07.314Z,9.13
2019-04-23T18:02:14.698Z,8.40
2019-04-23T18:04:10.464Z,9.10
2019-04-23T18:06:41.198Z,8.75
2019-04-23T18:09:13.991Z,9.93
2019-04-23T18:11:39.712Z,9.13
2019-04-23T18:14:08.427Z,9.23
2019-04-23T18:19:14.644Z,9.68
2019-04-23T18:24:22.658Z,8.78
2019-04-23T18:27:01.399Z,8.93
2019-04-23T18:29:40.388Z,9.78
2019-04-23T18:32:12.773Z,9.85
2019-04-23T18:34:56.891Z,9.70
2019-04-23T18:37:10.763Z,8.35
2019-04-23T18:39:43.727Z,8.80
2019-04-23T18:42:20.479Z,9.73
2019-04-23T18:44:43.577Z,9.80
2019-04-23T18:47:25.204Z,9.68
2019-04-23T18:49:45.032Z,9.13
2019-04-23T18:52:25.953Z,9.90
2019-04-23T18:54:48.845Z,10.10
2019-04-23T19:02:37.288Z,12.23
2019-04-23T19:05:08.523Z,13.97
2019-04-23T19:07:50.190Z,13.05
2019-04-23T19:13:02.585Z,12.13
2019-04-23T19:15:37.116Z,13.10
2019-04-23T19:18:14.709Z,14.00
2019-04-23T19:23:27.293Z,15.27
2019-04-23T19:28:26.701Z,19.27
2019-04-23T19:30:46.190Z,19.23
2019-04-23T19:33:25.402Z,17.75
2019-04-23T19:43:12.103Z,14.53
2019-04-23T19:45:58.064Z,13.87
2019-04-23T19:48:26.544Z,14.13
2019-04-23T19:53:25.328Z,15.75
2019-04-23T19:56:03.847Z,16.93
2019-04-23T19:58:32.478Z,16.82
2019-04-23T20:11:08.018Z,14.07
2019-04-23T20:16:10.859Z,14.95
2019-04-23T20:21:03.743Z,14.83
2019-04-23T20:34:31.146Z,14.78
2019-04-23T20:36:49.529Z,16.17
2019-04-23T20:44:37.340Z,14.65
2019-04-23T20:47:00.234Z,16.23
2019-04-23T20:57:24.927Z,16.67
2019-04-23T21:00:01.856Z,16.35
2019-04-23T21:02:34.780Z,16.80
2019-04-23T21:04:58.939Z,16.17
2019-04-23T21:07:29.787Z,18.77
2019-04-23T21:10:12.418Z,17.97
2019-04-23T21:12:41.770Z,17.10
2019-04-23T21:17:26.273Z,19.12
2019-04-23T21:20:08.852Z,18.13
2019-04-23T21:22:17.229Z,17.80
2019-04-23T21:24:55.591Z,17.12
2019-04-23T21:27:38.477Z,17.30
2019-04-23T21:30:09.136Z,17.98
2019-04-23T21:32:52.597Z,18.77
2019-04-23T21:35:16.676Z,18.60
2019-04-23T21:38:46.411Z,18.63
2019-04-23T21:40:45.081Z,18.32
2019-04-23T21:45:37.647Z,17.65
2019-04-23T21:50:37.397Z,17.90
2019-04-23T21:55:39.177Z,17.60
2019-04-23T22:00:41.202Z,16.67
2019-04-23T22:05:42.872Z,15.83
2019-04-23T22:08:02.492Z,16.62
2019-04-23T22:10:40.719Z,15.50
2019-04-23T22:15:44.900Z,15.48
2019-04-23T22:18:10.813Z,15.23
2019-04-23T22:20:43.708Z,15.33
2019-04-23T22:25:52.645Z,16.37
2019-04-23T22:28:10.370Z,16.55
2019-04-23T22:30:50.798Z,15.04
2019-04-23T22:33:14.084Z,15.45
2019-04-23T22:35:54.333Z,15.30
2019-04-23T22:38:20.740Z,15.70
2019-04-23T22:40:41.481Z,15.00
2019-04-23T22:45:53.414Z,15.83
2019-04-23T22:48:13.836Z,15.00
2019-04-23T22:50:57.517Z,14.63
2019-04-23T22:53:16.843Z,15.40
2019-04-23T22:55:57.312Z,15.00
2019-04-23T22:58:11.501Z,15.00
2019-04-23T23:01:00.441Z,15.10
2019-04-23T23:03:29.356Z,14.90
2019-04-23T23:08:37.885Z,15.00
2019-04-23T23:10:57.289Z,16.95
2019-04-23T23:13:33.405Z,17.43
2019-04-23T23:16:01.350Z,16.43
2019-04-23T23:18:35.850Z,16.77
2019-04-23T23:21:00.762Z,15.72
2019-04-23T23:26:06.717Z,19.13
2019-04-23T23:33:35.815Z,19.57
2019-04-23T23:36:10.718Z,19.10
2019-04-23T23:41:10.484Z,19.27
2019-04-23T23:43:29.711Z,18.75
2019-04-23T23:48:35.596Z,18.52
2019-04-23T23:51:11.611Z,18.70
2019-04-23T23:56:10.937Z,17.67
2019-04-23T23:58:52.617Z,17.27
